sensor_id;sensor_type;location;lat;lon;timestamp;P1;durP1;ratioP1;P2;durP2;ratioP2
84101;SDS011;74198;51.618;8.334;2023-12-20T00:00:29;10.20;;;4.35;;
84101;SDS011;74198;51.618;8.334;2023-12-20T00:02:55;7.38;;;3.47;;
84101;SDS011;74198;51.618;8.334;2023-12-20T00:05:21;9.10;;;4.47;;
84101;SDS011;74198;51.618;8.334;2023-12-20T00:07:47;6.43;;;2.42;;
84101;SDS011;74198;51.618;8.334;2023-12-20T00:10:13;6.38;;;1.88;;
84101;SDS011;74198;51.618;8.334;2023-12-20T00:12:39;8.25;;;2.03;;
84101;SDS011;74198;51.618;8.334;2023-12-20T00:15:06;4.30;;;1.98;;
84101;SDS011;74198;51.618;8.334;2023-12-20T00:17:32;5.35;;;2.30;;
84101;SDS011;74198;51.618;8.334;2023-12-20T00:19:58;7.07;;;2.30;;
84101;SDS011;74198;51.618;8.334;2023-12-20T00:22:24;6.50;;;2.47;;
84101;SDS011;74198;51.618;8.334;2023-12-20T00:24:50;7.18;;;3.25;;
84101;SDS011;74198;51.618;8.334;2023-12-20T00:27:16;7.78;;;3.22;;
84101;SDS011;74198;51.618;8.334;2023-12-20T00:29:42;8.30;;;4.22;;
84101;SDS011;74198;51.618;8.334;2023-12-20T00:32:12;8.55;;;3.85;;
84101;SDS011;74198;51.618;8.334;2023-12-20T00:34:38;8.68;;;4.43;;
84101;SDS011;74198;51.618;8.334;2023-12-20T00:37:04;11.18;;;4.50;;
84101;SDS011;74198;51.618;8.334;2023-12-20T00:39:30;16.55;;;5.50;;
84101;SDS011;74198;51.618;8.334;2023-12-20T00:41:58;13.52;;;6.18;;
84101;SDS011;74198;51.618;8.334;2023-12-20T00:44:24;14.45;;;7.07;;
84101;SDS011;74198;51.618;8.334;2023-12-20T00:46:49;11.50;;;5.60;;
84101;SDS011;74198;51.618;8.334;2023-12-20T00:49:16;13.15;;;6.00;;
84101;SDS011;74198;51.618;8.334;2023-12-20T00:51:42;15.57;;;7.50;;
84101;SDS011;74198;51.618;8.334;2023-12-20T00:54:08;16.27;;;7.30;;
84101;SDS011;74198;51.618;8.334;2023-12-20T00:56:34;19.98;;;7.72;;
84101;SDS011;74198;51.618;8.334;2023-12-20T00:59:00;17.17;;;7.88;;
84101;SDS011;74198;51.618;8.334;2023-12-20T01:01:26;17.15;;;8.25;;
84101;SDS011;74198;51.618;8.334;2023-12-20T01:03:52;21.48;;;8.63;;
84101;SDS011;74198;51.618;8.334;2023-12-20T01:06:18;24.77;;;9.82;;
84101;SDS011;74198;51.618;8.334;2023-12-20T01:08:44;19.60;;;8.60;;
84101;SDS011;74198;51.618;8.334;2023-12-20T01:11:10;21.02;;;8.85;;
84101;SDS011;74198;51.618;8.334;2023-12-20T01:13:36;22.63;;;9.50;;
84101;SDS011;74198;51.618;8.334;2023-12-20T01:16:02;17.65;;;8.80;;
84101;SDS011;74198;51.618;8.334;2023-12-20T01:18:28;20.52;;;9.48;;
84101;SDS011;74198;51.618;8.334;2023-12-20T01:20:54;19.55;;;8.93;;
84101;SDS011;74198;51.618;8.334;2023-12-20T01:23:20;23.80;;;8.75;;
84101;SDS011;74198;51.618;8.334;2023-12-20T01:25:46;20.42;;;8.55;;
84101;SDS011;74198;51.618;8.334;2023-12-20T01:28:12;19.88;;;8.52;;
84101;SDS011;74198;51.618;8.334;2023-12-20T01:30:38;23.08;;;9.10;;
84101;SDS011;74198;51.618;8.334;2023-12-20T01:33:04;21.95;;;8.07;;
84101;SDS011;74198;51.618;8.334;2023-12-20T01:35:30;20.27;;;8.63;;
84101;SDS011;74198;51.618;8.334;2023-12-20T01:37:56;15.60;;;7.00;;
84101;SDS011;74198;51.618;8.334;2023-12-20T01:40:22;22.38;;;8.55;;
84101;SDS011;74198;51.618;8.334;2023-12-20T01:42:58;15.65;;;7.38;;
84101;SDS011;74198;51.618;8.334;2023-12-20T01:45:24;19.25;;;7.97;;
84101;SDS011;74198;51.618;8.334;2023-12-20T01:47:50;18.40;;;7.30;;
84101;SDS011;74198;51.618;8.334;2023-12-20T01:50:16;21.65;;;7.85;;
84101;SDS011;74198;51.618;8.334;2023-12-20T01:52:42;13.98;;;6.70;;
84101;SDS011;74198;51.618;8.334;2023-12-20T01:55:09;19.33;;;7.70;;
84101;SDS011;74198;51.618;8.334;2023-12-20T01:57:39;14.55;;;6.80;;
84101;SDS011;74198;51.618;8.334;2023-12-20T02:00:05;16.08;;;7.07;;
84101;SDS011;74198;51.618;8.334;2023-12-20T02:02:33;19.92;;;6.07;;
84101;SDS011;74198;51.618;8.334;2023-12-20T02:04:59;16.02;;;5.72;;
84101;SDS011;74198;51.618;8.334;2023-12-20T02:07:25;15.10;;;7.10;;
84101;SDS011;74198;51.618;8.334;2023-12-20T02:09:51;17.67;;;6.78;;
84101;SDS011;74198;51.618;8.334;2023-12-20T02:12:18;15.98;;;6.32;;
84101;SDS011;74198;51.618;8.334;2023-12-20T02:14:44;12.68;;;5.68;;
84101;SDS011;74198;51.618;8.334;2023-12-20T02:17:10;15.95;;;5.78;;
84101;SDS011;74198;51.618;8.334;2023-12-20T02:19:36;13.15;;;5.90;;
84101;SDS011;74198;51.618;8.334;2023-12-20T02:22:20;13.52;;;4.88;;
84101;SDS011;74198;51.618;8.334;2023-12-20T02:24:46;10.75;;;4.88;;
84101;SDS011;74198;51.618;8.334;2023-12-20T02:27:12;9.25;;;4.13;;
84101;SDS011;74198;51.618;8.334;2023-12-20T02:29:38;11.80;;;3.95;;
84101;SDS011;74198;51.618;8.334;2023-12-20T02:32:04;15.00;;;4.20;;
84101;SDS011;74198;51.618;8.334;2023-12-20T02:34:30;11.27;;;4.03;;
84101;SDS011;74198;51.618;8.334;2023-12-20T02:36:56;11.40;;;4.22;;
84101;SDS011;74198;51.618;8.334;2023-12-20T02:39:22;6.90;;;3.30;;
84101;SDS011;74198;51.618;8.334;2023-12-20T02:41:48;14.27;;;4.25;;
84101;SDS011;74198;51.618;8.334;2023-12-20T02:44:14;11.43;;;4.95;;
84101;SDS011;74198;51.618;8.334;2023-12-20T02:46:40;11.68;;;4.15;;
84101;SDS011;74198;51.618;8.334;2023-12-20T02:49:06;8.63;;;4.50;;
84101;SDS011;74198;51.618;8.334;2023-12-20T02:51:32;15.80;;;4.57;;
84101;SDS011;74198;51.618;8.334;2023-12-20T02:53:58;12.88;;;4.55;;
84101;SDS011;74198;51.618;8.334;2023-12-20T02:56:24;10.65;;;4.25;;
84101;SDS011;74198;51.618;8.334;2023-12-20T02:58:50;11.13;;;4.10;;
84101;SDS011;74198;51.618;8.334;2023-12-20T03:01:16;11.02;;;4.43;;
84101;SDS011;74198;51.618;8.334;2023-12-20T03:03:42;13.65;;;4.72;;
84101;SDS011;74198;51.618;8.334;2023-12-20T03:06:08;9.77;;;4.80;;
84101;SDS011;74198;51.618;8.334;2023-12-20T03:08:34;14.52;;;5.15;;
84101;SDS011;74198;51.618;8.334;2023-12-20T03:10:59;11.25;;;5.20;;
84101;SDS011;74198;51.618;8.334;2023-12-20T03:13:25;11.52;;;4.05;;
84101;SDS011;74198;51.618;8.334;2023-12-20T03:15:51;9.13;;;3.83;;
84101;SDS011;74198;51.618;8.334;2023-12-20T03:18:17;10.43;;;4.50;;
84101;SDS011;74198;51.618;8.334;2023-12-20T03:20:43;11.82;;;3.53;;
84101;SDS011;74198;51.618;8.334;2023-12-20T03:23:09;8.40;;;4.03;;
84101;SDS011;74198;51.618;8.334;2023-12-20T03:25:35;9.18;;;3.45;;
84101;SDS011;74198;51.618;8.334;2023-12-20T03:28:01;8.25;;;3.67;;
84101;SDS011;74198;51.618;8.334;2023-12-20T03:30:27;10.40;;;4.25;;
84101;SDS011;74198;51.618;8.334;2023-12-20T03:32:53;8.75;;;4.15;;
84101;SDS011;74198;51.618;8.334;2023-12-20T03:35:19;13.07;;;4.32;;
84101;SDS011;74198;51.618;8.334;2023-12-20T03:37:45;15.60;;;3.30;;
84101;SDS011;74198;51.618;8.334;2023-12-20T03:40:11;9.68;;;3.45;;
84101;SDS011;74198;51.618;8.334;2023-12-20T03:42:37;10.02;;;3.30;;
84101;SDS011;74198;51.618;8.334;2023-12-20T03:45:03;10.60;;;3.42;;
84101;SDS011;74198;51.618;8.334;2023-12-20T03:47:29;13.65;;;3.17;;
84101;SDS011;74198;51.618;8.334;2023-12-20T03:49:55;6.50;;;2.50;;
84101;SDS011;74198;51.618;8.334;2023-12-20T03:52:21;7.45;;;2.35;;
84101;SDS011;74198;51.618;8.334;2023-12-20T03:54:47;13.30;;;2.83;;
84101;SDS011;74198;51.618;8.334;2023-12-20T03:57:13;9.15;;;2.72;;
84101;SDS011;74198;51.618;8.334;2023-12-20T03:59:39;8.13;;;2.65;;
84101;SDS011;74198;51.618;8.334;2023-12-20T04:02:05;11.18;;;3.60;;
84101;SDS011;74198;51.618;8.334;2023-12-20T04:04:31;7.45;;;2.95;;
84101;SDS011;74198;51.618;8.334;2023-12-20T04:06:57;7.72;;;2.75;;
84101;SDS011;74198;51.618;8.334;2023-12-20T04:09:23;8.57;;;2.75;;
84101;SDS011;74198;51.618;8.334;2023-12-20T04:11:49;10.43;;;2.60;;
84101;SDS011;74198;51.618;8.334;2023-12-20T04:14:16;9.05;;;2.53;;
84101;SDS011;74198;51.618;8.334;2023-12-20T04:16:42;7.53;;;2.65;;
84101;SDS011;74198;51.618;8.334;2023-12-20T04:19:09;10.75;;;3.42;;
84101;SDS011;74198;51.618;8.334;2023-12-20T04:21:35;10.55;;;3.25;;
84101;SDS011;74198;51.618;8.334;2023-12-20T04:24:01;9.68;;;3.00;;
84101;SDS011;74198;51.618;8.334;2023-12-20T04:26:27;8.77;;;3.05;;
84101;SDS011;74198;51.618;8.334;2023-12-20T04:28:54;10.90;;;3.70;;
84101;SDS011;74198;51.618;8.334;2023-12-20T04:31:20;11.93;;;4.05;;
84101;SDS011;74198;51.618;8.334;2023-12-20T04:33:46;6.82;;;2.90;;
84101;SDS011;74198;51.618;8.334;2023-12-20T04:36:12;11.20;;;3.10;;
84101;SDS011;74198;51.618;8.334;2023-12-20T04:38:38;8.35;;;2.33;;
84101;SDS011;74198;51.618;8.334;2023-12-20T04:41:04;8.55;;;2.85;;
84101;SDS011;74198;51.618;8.334;2023-12-20T04:43:30;8.48;;;3.17;;
84101;SDS011;74198;51.618;8.334;2023-12-20T04:45:56;11.80;;;3.13;;
84101;SDS011;74198;51.618;8.334;2023-12-20T04:48:22;9.40;;;3.55;;
84101;SDS011;74198;51.618;8.334;2023-12-20T04:50:48;16.08;;;3.13;;
84101;SDS011;74198;51.618;8.334;2023-12-20T04:53:14;12.25;;;3.42;;
84101;SDS011;74198;51.618;8.334;2023-12-20T04:55:40;12.60;;;3.80;;
84101;SDS011;74198;51.618;8.334;2023-12-20T04:58:05;8.80;;;2.97;;
84101;SDS011;74198;51.618;8.334;2023-12-20T05:00:31;12.40;;;4.20;;
84101;SDS011;74198;51.618;8.334;2023-12-20T05:02:57;12.18;;;4.07;;
84101;SDS011;74198;51.618;8.334;2023-12-20T05:05:23;15.48;;;3.78;;
84101;SDS011;74198;51.618;8.334;2023-12-20T05:07:49;12.50;;;3.38;;
84101;SDS011;74198;51.618;8.334;2023-12-20T05:10:15;10.90;;;3.33;;
84101;SDS011;74198;51.618;8.334;2023-12-20T05:12:41;10.60;;;3.35;;
84101;SDS011;74198;51.618;8.334;2023-12-20T05:15:07;14.18;;;3.95;;
84101;SDS011;74198;51.618;8.334;2023-12-20T05:17:34;17.13;;;3.88;;
84101;SDS011;74198;51.618;8.334;2023-12-20T05:20:00;12.90;;;3.60;;
84101;SDS011;74198;51.618;8.334;2023-12-20T05:22:25;10.23;;;3.50;;
84101;SDS011;74198;51.618;8.334;2023-12-20T05:24:52;15.55;;;3.78;;
84101;SDS011;74198;51.618;8.334;2023-12-20T05:27:18;11.48;;;3.33;;
84101;SDS011;74198;51.618;8.334;2023-12-20T05:29:44;17.25;;;3.95;;
84101;SDS011;74198;51.618;8.334;2023-12-20T05:32:10;12.00;;;3.88;;
84101;SDS011;74198;51.618;8.334;2023-12-20T05:34:36;7.13;;;2.42;;
84101;SDS011;74198;51.618;8.334;2023-12-20T05:37:02;15.35;;;4.63;;
84101;SDS011;74198;51.618;8.334;2023-12-20T05:39:28;14.40;;;4.10;;
84101;SDS011;74198;51.618;8.334;2023-12-20T05:41:55;17.88;;;3.97;;
84101;SDS011;74198;51.618;8.334;2023-12-20T05:44:21;14.05;;;4.72;;
84101;SDS011;74198;51.618;8.334;2023-12-20T05:46:47;13.43;;;4.43;;
84101;SDS011;74198;51.618;8.334;2023-12-20T05:49:13;15.27;;;4.57;;
84101;SDS011;74198;51.618;8.334;2023-12-20T05:51:39;13.70;;;5.00;;
84101;SDS011;74198;51.618;8.334;2023-12-20T05:54:05;16.42;;;5.55;;
84101;SDS011;74198;51.618;8.334;2023-12-20T05:56:31;8.23;;;4.07;;
84101;SDS011;74198;51.618;8.334;2023-12-20T05:58:57;9.20;;;4.07;;
84101;SDS011;74198;51.618;8.334;2023-12-20T06:01:24;15.05;;;5.35;;
84101;SDS011;74198;51.618;8.334;2023-12-20T06:03:49;10.95;;;5.22;;
84101;SDS011;74198;51.618;8.334;2023-12-20T06:06:15;16.52;;;5.25;;
84101;SDS011;74198;51.618;8.334;2023-12-20T06:08:42;12.40;;;4.53;;
84101;SDS011;74198;51.618;8.334;2023-12-20T06:11:08;17.33;;;5.45;;
84101;SDS011;74198;51.618;8.334;2023-12-20T06:13:34;21.17;;;5.57;;
84101;SDS011;74198;51.618;8.334;2023-12-20T06:16:00;17.60;;;6.75;;
84101;SDS011;74198;51.618;8.334;2023-12-20T06:18:26;17.40;;;5.20;;
84101;SDS011;74198;51.618;8.334;2023-12-20T06:20:52;12.68;;;5.78;;
84101;SDS011;74198;51.618;8.334;2023-12-20T06:23:18;11.25;;;5.60;;
84101;SDS011;74198;51.618;8.334;2023-12-20T06:25:44;16.50;;;5.63;;
84101;SDS011;74198;51.618;8.334;2023-12-20T06:28:10;21.27;;;5.85;;
84101;SDS011;74198;51.618;8.334;2023-12-20T06:30:39;17.85;;;5.55;;
84101;SDS011;74198;51.618;8.334;2023-12-20T06:33:05;18.05;;;5.72;;
84101;SDS011;74198;51.618;8.334;2023-12-20T06:35:31;18.13;;;4.82;;
84101;SDS011;74198;51.618;8.334;2023-12-20T06:37:58;13.05;;;4.53;;
84101;SDS011;74198;51.618;8.334;2023-12-20T06:40:24;14.15;;;4.88;;
84101;SDS011;74198;51.618;8.334;2023-12-20T06:42:50;12.02;;;5.57;;
84101;SDS011;74198;51.618;8.334;2023-12-20T06:45:15;16.33;;;5.40;;
84101;SDS011;74198;51.618;8.334;2023-12-20T06:47:41;13.18;;;4.47;;
84101;SDS011;74198;51.618;8.334;2023-12-20T06:50:07;15.02;;;5.70;;
84101;SDS011;74198;51.618;8.334;2023-12-20T06:52:34;11.68;;;4.60;;
84101;SDS011;74198;51.618;8.334;2023-12-20T06:55:00;12.10;;;3.78;;
84101;SDS011;74198;51.618;8.334;2023-12-20T06:57:26;12.13;;;4.82;;
84101;SDS011;74198;51.618;8.334;2023-12-20T06:59:52;14.60;;;5.30;;
84101;SDS011;74198;51.618;8.334;2023-12-20T07:02:18;16.92;;;5.15;;
84101;SDS011;74198;51.618;8.334;2023-12-20T07:04:45;15.30;;;5.20;;
84101;SDS011;74198;51.618;8.334;2023-12-20T07:07:11;11.63;;;4.70;;
84101;SDS011;74198;51.618;8.334;2023-12-20T07:09:37;10.48;;;4.50;;
84101;SDS011;74198;51.618;8.334;2023-12-20T07:12:04;13.30;;;4.88;;
84101;SDS011;74198;51.618;8.334;2023-12-20T07:14:30;9.82;;;4.30;;
84101;SDS011;74198;51.618;8.334;2023-12-20T07:16:56;15.80;;;4.50;;
84101;SDS011;74198;51.618;8.334;2023-12-20T07:19:22;9.63;;;3.50;;
84101;SDS011;74198;51.618;8.334;2023-12-20T07:21:48;13.45;;;4.40;;
84101;SDS011;74198;51.618;8.334;2023-12-20T07:24:14;13.68;;;5.05;;
84101;SDS011;74198;51.618;8.334;2023-12-20T07:26:39;14.98;;;3.92;;
84101;SDS011;74198;51.618;8.334;2023-12-20T07:29:05;14.43;;;3.80;;
84101;SDS011;74198;51.618;8.334;2023-12-20T07:31:31;12.02;;;4.53;;
84101;SDS011;74198;51.618;8.334;2023-12-20T07:33:57;12.25;;;3.80;;
84101;SDS011;74198;51.618;8.334;2023-12-20T07:36:23;14.30;;;4.50;;
84101;SDS011;74198;51.618;8.334;2023-12-20T07:38:49;12.15;;;4.10;;
84101;SDS011;74198;51.618;8.334;2023-12-20T07:41:15;18.13;;;5.03;;
84101;SDS011;74198;51.618;8.334;2023-12-20T07:43:42;15.02;;;5.07;;
84101;SDS011;74198;51.618;8.334;2023-12-20T07:46:08;11.82;;;4.70;;
84101;SDS011;74198;51.618;8.334;2023-12-20T07:48:34;10.73;;;4.13;;
84101;SDS011;74198;51.618;8.334;2023-12-20T07:51:01;14.55;;;4.82;;
84101;SDS011;74198;51.618;8.334;2023-12-20T07:53:27;16.52;;;5.70;;
84101;SDS011;74198;51.618;8.334;2023-12-20T07:55:53;12.02;;;5.13;;
84101;SDS011;74198;51.618;8.334;2023-12-20T07:58:19;18.30;;;5.65;;
84101;SDS011;74198;51.618;8.334;2023-12-20T08:00:45;15.48;;;5.25;;
84101;SDS011;74198;51.618;8.334;2023-12-20T08:03:11;14.02;;;4.93;;
84101;SDS011;74198;51.618;8.334;2023-12-20T08:05:38;13.68;;;4.10;;
84101;SDS011;74198;51.618;8.334;2023-12-20T08:08:05;12.93;;;4.78;;
84101;SDS011;74198;51.618;8.334;2023-12-20T08:10:31;12.35;;;3.92;;
84101;SDS011;74198;51.618;8.334;2023-12-20T08:12:57;15.13;;;5.22;;
84101;SDS011;74198;51.618;8.334;2023-12-20T08:15:23;12.18;;;4.57;;
84101;SDS011;74198;51.618;8.334;2023-12-20T08:17:49;12.68;;;4.75;;
84101;SDS011;74198;51.618;8.334;2023-12-20T08:20:18;16.00;;;4.63;;
84101;SDS011;74198;51.618;8.334;2023-12-20T08:22:44;9.27;;;3.63;;
84101;SDS011;74198;51.618;8.334;2023-12-20T08:25:10;14.88;;;4.35;;
84101;SDS011;74198;51.618;8.334;2023-12-20T08:27:39;13.23;;;4.65;;
84101;SDS011;74198;51.618;8.334;2023-12-20T08:30:06;9.82;;;2.75;;
84101;SDS011;74198;51.618;8.334;2023-12-20T08:32:33;10.63;;;3.50;;
84101;SDS011;74198;51.618;8.334;2023-12-20T08:34:59;12.57;;;3.40;;
84101;SDS011;74198;51.618;8.334;2023-12-20T08:37:25;14.00;;;3.83;;
84101;SDS011;74198;51.618;8.334;2023-12-20T08:39:51;9.48;;;3.97;;
84101;SDS011;74198;51.618;8.334;2023-12-20T08:42:17;14.18;;;3.97;;
84101;SDS011;74198;51.618;8.334;2023-12-20T08:44:44;9.45;;;3.35;;
84101;SDS011;74198;51.618;8.334;2023-12-20T08:47:10;13.32;;;3.13;;
84101;SDS011;74198;51.618;8.334;2023-12-20T08:49:38;10.05;;;3.40;;
84101;SDS011;74198;51.618;8.334;2023-12-20T08:52:04;13.20;;;4.03;;
84101;SDS011;74198;51.618;8.334;2023-12-20T08:54:30;8.13;;;3.63;;
84101;SDS011;74198;51.618;8.334;2023-12-20T08:56:56;11.85;;;4.40;;
84101;SDS011;74198;51.618;8.334;2023-12-20T08:59:22;10.63;;;3.50;;
84101;SDS011;74198;51.618;8.334;2023-12-20T09:01:48;11.18;;;3.70;;
84101;SDS011;74198;51.618;8.334;2023-12-20T09:04:19;15.32;;;4.18;;
84101;SDS011;74198;51.618;8.334;2023-12-20T09:06:45;7.88;;;3.42;;
84101;SDS011;74198;51.618;8.334;2023-12-20T09:09:11;9.70;;;3.78;;
84101;SDS011;74198;51.618;8.334;2023-12-20T09:11:38;7.82;;;2.95;;
84101;SDS011;74198;51.618;8.334;2023-12-20T09:14:04;13.02;;;4.22;;
84101;SDS011;74198;51.618;8.334;2023-12-20T09:16:30;12.32;;;3.40;;
84101;SDS011;74198;51.618;8.334;2023-12-20T09:18:57;10.10;;;3.95;;
84101;SDS011;74198;51.618;8.334;2023-12-20T09:21:23;9.98;;;3.88;;
84101;SDS011;74198;51.618;8.334;2023-12-20T09:23:49;10.07;;;4.65;;
84101;SDS011;74198;51.618;8.334;2023-12-20T09:26:15;13.25;;;4.10;;
84101;SDS011;74198;51.618;8.334;2023-12-20T09:28:41;8.02;;;3.60;;
84101;SDS011;74198;51.618;8.334;2023-12-20T09:31:07;13.75;;;3.53;;
84101;SDS011;74198;51.618;8.334;2023-12-20T09:33:33;10.10;;;4.20;;
84101;SDS011;74198;51.618;8.334;2023-12-20T09:35:59;15.73;;;4.63;;
84101;SDS011;74198;51.618;8.334;2023-12-20T09:38:25;14.68;;;4.68;;
84101;SDS011;74198;51.618;8.334;2023-12-20T09:40:51;12.55;;;4.20;;
84101;SDS011;74198;51.618;8.334;2023-12-20T09:43:18;8.88;;;3.97;;
84101;SDS011;74198;51.618;8.334;2023-12-20T09:45:48;12.15;;;4.22;;
84101;SDS011;74198;51.618;8.334;2023-12-20T09:48:14;13.35;;;3.95;;
84101;SDS011;74198;51.618;8.334;2023-12-20T09:50:44;6.78;;;3.45;;
84101;SDS011;74198;51.618;8.334;2023-12-20T09:53:10;10.15;;;4.10;;
84101;SDS011;74198;51.618;8.334;2023-12-20T09:55:37;8.27;;;2.97;;
84101;SDS011;74198;51.618;8.334;2023-12-20T09:58:03;13.45;;;4.70;;
84101;SDS011;74198;51.618;8.334;2023-12-20T10:00:30;7.35;;;3.90;;
84101;SDS011;74198;51.618;8.334;2023-12-20T10:02:57;10.30;;;4.15;;
84101;SDS011;74198;51.618;8.334;2023-12-20T10:05:29;13.02;;;5.00;;
84101;SDS011;74198;51.618;8.334;2023-12-20T10:07:56;14.93;;;4.63;;
84101;SDS011;74198;51.618;8.334;2023-12-20T10:10:22;12.98;;;4.82;;
84101;SDS011;74198;51.618;8.334;2023-12-20T10:15:47;13.05;;;4.15;;
84101;SDS011;74198;51.618;8.334;2023-12-20T10:18:15;14.32;;;4.30;;
84101;SDS011;74198;51.618;8.334;2023-12-20T10:20:41;7.40;;;4.20;;
84101;SDS011;74198;51.618;8.334;2023-12-20T10:23:07;12.52;;;4.03;;
84101;SDS011;74198;51.618;8.334;2023-12-20T10:25:34;10.48;;;3.85;;
84101;SDS011;74198;51.618;8.334;2023-12-20T10:28:10;12.00;;;3.92;;
84101;SDS011;74198;51.618;8.334;2023-12-20T10:30:36;10.43;;;4.93;;
84101;SDS011;74198;51.618;8.334;2023-12-20T10:33:03;9.10;;;4.22;;
84101;SDS011;74198;51.618;8.334;2023-12-20T10:35:28;10.55;;;3.47;;
84101;SDS011;74198;51.618;8.334;2023-12-20T10:37:55;11.50;;;4.85;;
84101;SDS011;74198;51.618;8.334;2023-12-20T10:40:21;11.23;;;4.07;;
84101;SDS011;74198;51.618;8.334;2023-12-20T10:42:48;16.70;;;4.82;;
84101;SDS011;74198;51.618;8.334;2023-12-20T10:45:14;13.45;;;3.97;;
84101;SDS011;74198;51.618;8.334;2023-12-20T10:47:42;11.93;;;4.35;;
84101;SDS011;74198;51.618;8.334;2023-12-20T10:50:08;10.13;;;4.72;;
84101;SDS011;74198;51.618;8.334;2023-12-20T10:52:34;13.43;;;4.60;;
84101;SDS011;74198;51.618;8.334;2023-12-20T10:55:01;10.63;;;4.07;;
84101;SDS011;74198;51.618;8.334;2023-12-20T10:57:27;16.63;;;4.97;;
84101;SDS011;74198;51.618;8.334;2023-12-20T10:59:53;11.07;;;4.25;;
84101;SDS011;74198;51.618;8.334;2023-12-20T11:02:20;10.82;;;4.78;;
84101;SDS011;74198;51.618;8.334;2023-12-20T11:07:38;10.15;;;4.15;;
84101;SDS011;74198;51.618;8.334;2023-12-20T11:10:14;7.57;;;3.92;;
84101;SDS011;74198;51.618;8.334;2023-12-20T11:15:08;10.48;;;4.22;;
84101;SDS011;74198;51.618;8.334;2023-12-20T11:17:34;12.02;;;4.25;;
84101;SDS011;74198;51.618;8.334;2023-12-20T11:22:32;13.25;;;4.43;;
84101;SDS011;74198;51.618;8.334;2023-12-20T11:25:05;15.75;;;4.28;;
84101;SDS011;74198;51.618;8.334;2023-12-20T11:27:34;12.95;;;4.22;;
84101;SDS011;74198;51.618;8.334;2023-12-20T11:30:02;12.75;;;5.03;;
84101;SDS011;74198;51.618;8.334;2023-12-20T11:32:28;14.50;;;4.20;;
84101;SDS011;74198;51.618;8.334;2023-12-20T11:34:59;11.45;;;4.20;;
84101;SDS011;74198;51.618;8.334;2023-12-20T11:37:29;11.18;;;4.30;;
84101;SDS011;74198;51.618;8.334;2023-12-20T11:40:02;14.90;;;4.90;;
84101;SDS011;74198;51.618;8.334;2023-12-20T11:42:32;13.15;;;5.20;;
84101;SDS011;74198;51.618;8.334;2023-12-20T11:44:59;10.55;;;4.40;;
84101;SDS011;74198;51.618;8.334;2023-12-20T11:47:25;11.95;;;4.40;;
84101;SDS011;74198;51.618;8.334;2023-12-20T11:49:51;19.38;;;5.97;;
84101;SDS011;74198;51.618;8.334;2023-12-20T11:52:16;10.00;;;4.20;;
84101;SDS011;74198;51.618;8.334;2023-12-20T11:54:42;13.05;;;5.50;;
84101;SDS011;74198;51.618;8.334;2023-12-20T11:57:08;14.57;;;5.28;;
84101;SDS011;74198;51.618;8.334;2023-12-20T11:59:35;12.05;;;4.97;;
84101;SDS011;74198;51.618;8.334;2023-12-20T12:02:02;15.65;;;5.97;;
84101;SDS011;74198;51.618;8.334;2023-12-20T12:04:28;10.98;;;4.45;;
84101;SDS011;74198;51.618;8.334;2023-12-20T12:06:54;9.77;;;4.70;;
84101;SDS011;74198;51.618;8.334;2023-12-20T12:09:20;15.75;;;5.43;;
84101;SDS011;74198;51.618;8.334;2023-12-20T12:11:46;12.20;;;4.88;;
84101;SDS011;74198;51.618;8.334;2023-12-20T12:14:12;13.00;;;5.07;;
84101;SDS011;74198;51.618;8.334;2023-12-20T12:16:38;9.55;;;4.57;;
84101;SDS011;74198;51.618;8.334;2023-12-20T12:19:04;14.52;;;6.32;;
84101;SDS011;74198;51.618;8.334;2023-12-20T12:21:30;8.75;;;4.93;;
84101;SDS011;74198;51.618;8.334;2023-12-20T12:24:08;14.80;;;5.97;;
84101;SDS011;74198;51.618;8.334;2023-12-20T12:26:34;8.25;;;4.07;;
84101;SDS011;74198;51.618;8.334;2023-12-20T12:29:00;10.52;;;5.35;;
84101;SDS011;74198;51.618;8.334;2023-12-20T12:31:26;10.52;;;4.10;;
84101;SDS011;74198;51.618;8.334;2023-12-20T12:33:52;10.73;;;5.18;;
84101;SDS011;74198;51.618;8.334;2023-12-20T12:36:18;13.32;;;5.60;;
84101;SDS011;74198;51.618;8.334;2023-12-20T12:38:44;13.73;;;4.30;;
84101;SDS011;74198;51.618;8.334;2023-12-20T12:41:12;12.50;;;4.63;;
84101;SDS011;74198;51.618;8.334;2023-12-20T12:43:38;14.40;;;4.15;;
84101;SDS011;74198;51.618;8.334;2023-12-20T12:46:04;5.55;;;3.00;;
84101;SDS011;74198;51.618;8.334;2023-12-20T12:48:30;19.75;;;4.82;;
84101;SDS011;74198;51.618;8.334;2023-12-20T12:50:56;8.68;;;4.00;;
84101;SDS011;74198;51.618;8.334;2023-12-20T12:53:24;7.03;;;3.75;;
84101;SDS011;74198;51.618;8.334;2023-12-20T12:55:51;11.70;;;4.60;;
84101;SDS011;74198;51.618;8.334;2023-12-20T12:58:17;12.32;;;4.38;;
84101;SDS011;74198;51.618;8.334;2023-12-20T13:00:43;10.05;;;4.72;;
84101;SDS011;74198;51.618;8.334;2023-12-20T13:03:09;11.70;;;3.88;;
84101;SDS011;74198;51.618;8.334;2023-12-20T13:05:34;10.95;;;3.65;;
84101;SDS011;74198;51.618;8.334;2023-12-20T13:08:00;7.35;;;3.78;;
84101;SDS011;74198;51.618;8.334;2023-12-20T13:10:26;10.55;;;4.50;;
84101;SDS011;74198;51.618;8.334;2023-12-20T13:12:52;9.13;;;3.92;;
84101;SDS011;74198;51.618;8.334;2023-12-20T13:15:18;8.30;;;4.10;;
84101;SDS011;74198;51.618;8.334;2023-12-20T13:17:44;11.00;;;3.33;;
84101;SDS011;74198;51.618;8.334;2023-12-20T13:20:11;11.60;;;4.43;;
84101;SDS011;74198;51.618;8.334;2023-12-20T13:22:37;7.60;;;3.05;;
84101;SDS011;74198;51.618;8.334;2023-12-20T13:25:03;15.52;;;5.00;;
84101;SDS011;74198;51.618;8.334;2023-12-20T13:27:30;10.52;;;3.17;;
84101;SDS011;74198;51.618;8.334;2023-12-20T13:29:55;9.20;;;3.88;;
84101;SDS011;74198;51.618;8.334;2023-12-20T13:32:21;11.32;;;4.35;;
84101;SDS011;74198;51.618;8.334;2023-12-20T13:34:47;8.27;;;4.32;;
84101;SDS011;74198;51.618;8.334;2023-12-20T13:37:13;12.05;;;4.65;;
84101;SDS011;74198;51.618;8.334;2023-12-20T13:39:39;13.38;;;5.07;;
84101;SDS011;74198;51.618;8.334;2023-12-20T13:42:06;9.60;;;4.55;;
84101;SDS011;74198;51.618;8.334;2023-12-20T13:44:32;11.20;;;5.65;;
84101;SDS011;74198;51.618;8.334;2023-12-20T13:46:59;13.25;;;4.88;;
84101;SDS011;74198;51.618;8.334;2023-12-20T13:49:26;10.32;;;4.88;;
84101;SDS011;74198;51.618;8.334;2023-12-20T13:51:53;7.57;;;3.00;;
84101;SDS011;74198;51.618;8.334;2023-12-20T13:54:19;11.02;;;5.03;;
84101;SDS011;74198;51.618;8.334;2023-12-20T13:56:47;10.40;;;4.90;;
84101;SDS011;74198;51.618;8.334;2023-12-20T13:59:13;14.95;;;4.82;;
84101;SDS011;74198;51.618;8.334;2023-12-20T14:01:40;10.75;;;4.90;;
84101;SDS011;74198;51.618;8.334;2023-12-20T14:04:06;11.13;;;5.43;;
84101;SDS011;74198;51.618;8.334;2023-12-20T14:06:32;10.52;;;5.28;;
84101;SDS011;74198;51.618;8.334;2023-12-20T14:08:58;14.70;;;4.63;;
84101;SDS011;74198;51.618;8.334;2023-12-20T14:11:28;9.43;;;4.82;;
84101;SDS011;74198;51.618;8.334;2023-12-20T14:13:54;11.55;;;4.53;;
84101;SDS011;74198;51.618;8.334;2023-12-20T14:16:23;14.15;;;5.68;;
84101;SDS011;74198;51.618;8.334;2023-12-20T14:18:49;9.95;;;4.47;;
84101;SDS011;74198;51.618;8.334;2023-12-20T14:21:17;14.38;;;4.95;;
84101;SDS011;74198;51.618;8.334;2023-12-20T14:23:43;10.32;;;4.80;;
84101;SDS011;74198;51.618;8.334;2023-12-20T14:26:09;11.95;;;3.67;;
84101;SDS011;74198;51.618;8.334;2023-12-20T14:28:40;14.00;;;5.70;;
84101;SDS011;74198;51.618;8.334;2023-12-20T14:31:06;12.43;;;5.00;;
84101;SDS011;74198;51.618;8.334;2023-12-20T14:33:32;10.18;;;5.40;;
84101;SDS011;74198;51.618;8.334;2023-12-20T14:35:58;9.15;;;4.65;;
84101;SDS011;74198;51.618;8.334;2023-12-20T14:38:24;10.82;;;5.63;;
84101;SDS011;74198;51.618;8.334;2023-12-20T14:40:50;12.38;;;5.75;;
84101;SDS011;74198;51.618;8.334;2023-12-20T14:43:16;9.27;;;5.07;;